Time;durP1;ratioP1;P1;durP2;ratioP2;P2;SDS_P1;SDS_P2;PMS_P1;PMS_P2;Temp;Humidity;BMP_temperature;BMP_pressure;BME280_temperature;BME280_humidity;BME280_pressure;Samples;Min_cycle;Max_cycle;Signal;HPM_P1;HPM_P2
2020/12/08 01:02:45;;;;;;;0.13;0.07;;;4.50;88.50;;;;;;4118307;27;20098;-89
2020/12/08 01:05:11;;;;;;;0.20;0.10;;;4.50;88.50;;;;;;4193164;27;20050;-89
2020/12/08 01:07:43;;;;;;;0.23;0.23;;;4.40;88.50;;;;;;4152375;27;20031;-88
2020/12/08 01:10:10;;;;;;;0.97;0.40;;;4.40;88.60;;;;;;4166153;27;20094;-90
2020/12/08 01:12:39;;;;;;;0.77;0.17;;;4.50;88.60;;;;;;4163441;27;20078;-90
2020/12/08 01:15:06;;;;;;;0.60;0.20;;;4.40;88.60;;;;;;4124975;34;20344;-91
2020/12/08 01:17:33;;;;;;;0.87;0.33;;;4.40;88.60;;;;;;4124907;34;20043;-87
2020/12/08 01:19:59;;;;;;;5.20;0.57;;;4.40;88.60;;;;;;4125255;34;20085;-90
2020/12/08 01:22:26;;;;;;;0.53;0.17;;;4.40;88.60;;;;;;4126294;27;20065;-89
2020/12/08 01:24:55;;;;;;;1.03;0.27;;;4.40;88.70;;;;;;4192200;27;20077;-89
2020/12/08 01:27:22;;;;;;;0.73;0.33;;;4.40;88.70;;;;;;4124309;34;20031;-88
2020/12/08 01:29:54;;;;;;;0.00;0.00;;;4.40;88.70;;;;;;4124335;34;20051;-90
2020/12/08 01:32:20;;;;;;;0.00;0.00;;;4.30;88.60;;;;;;4185071;27;20082;-90
2020/12/08 01:35:00;;;;;;;0.43;0.30;;;4.40;88.60;;;;;;4124042;34;20073;-91
2020/12/08 01:37:29;;;;;;;0.63;0.43;;;4.40;88.70;;;;;;4125413;34;20073;-91
2020/12/08 01:40:03;;;;;;;0.87;0.20;;;4.40;88.70;;;;;;4124671;34;20054;-89
2020/12/08 01:42:32;;;;;;;0.10;0.00;;;4.40;88.60;;;;;;4211777;27;20046;-90
2020/12/08 01:45:01;;;;;;;0.00;0.00;;;4.40;88.60;;;;;;4131355;34;20093;-89
2020/12/08 01:50:31;;;;;;;0.40;0.10;;;4.40;88.60;;;;;;4143520;34;20058;-89
2020/12/08 01:53:04;;;;;;;0.10;0.00;;;4.40;88.50;;;;;;4132268;34;20047;-90
2020/12/08 01:55:35;;;;;;;0.77;0.30;;;4.40;88.50;;;;;;4132470;34;20077;-88
2020/12/08 02:00:42;;;;;;;0.17;0.10;;;4.40;88.50;;;;;;4251079;26;19958;-91
2020/12/08 02:03:11;;;;;;;0.20;0.10;;;4.40;88.50;;;;;;4146651;34;20054;-89
2020/12/08 02:05:40;;;;;;;0.00;0.00;;;4.40;88.50;;;;;;4134980;34;20055;-91
2020/12/08 02:08:07;;;;;;;0.20;0.10;;;4.40;88.50;;;;;;4219630;27;20046;-89
2020/12/08 02:10:44;;;;;;;0.03;0.03;;;4.40;88.50;;;;;;4135018;34;20058;-88
2020/12/08 02:13:28;;;;;;;0.27;0.10;;;4.40;88.40;;;;;;4136197;34;20066;-90
2020/12/08 02:16:16;;;;;;;0.07;0.07;;;4.40;88.40;;;;;;4108864;34;20102;-91
2020/12/08 02:19:03;;;;;;;0.50;0.13;;;4.40;88.40;;;;;;4146879;34;20063;-90
2020/12/08 02:21:39;;;;;;;0.53;0.20;;;4.40;88.40;;;;;;4160918;27;20085;-89
2020/12/08 02:24:06;;;;;;;0.50;0.10;;;4.40;88.40;;;;;;4269949;27;20049;-90
2020/12/08 02:26:35;;;;;;;0.20;0.10;;;4.40;88.40;;;;;;4132478;34;20098;-88
2020/12/08 02:29:15;;;;;;;;;;;;;;;;;;;;;
2020/12/08 02:31:53;;;;;;;0.40;0.17;;;4.40;88.50;;;;;;4143167;27;20047;-90
2020/12/08 02:34:20;;;;;;;0.00;0.00;;;4.40;88.60;;;;;;4134455;27;20493;-92
2020/12/08 02:36:49;;;;;;;0.00;0.00;;;4.30;88.50;;;;;;4130280;27;20425;-90
2020/12/08 02:39:33;;;;;;;3.43;0.40;;;4.30;88.60;;;;;;4094748;35;20055;-91
2020/12/08 02:42:00;;;;;;;0.47;0.30;;;4.30;88.70;;;;;;4096257;35;20071;-89
2020/12/08 02:44:32;;;;;;;4.77;0.23;;;4.30;88.70;;;;;;4169539;27;20055;-91
2020/12/08 02:50:03;;;;;;;0.00;0.00;;;4.20;88.80;;;;;;4099093;27;20133;-89
2020/12/08 02:52:32;;;;;;;0.10;0.10;;;4.20;88.80;;;;;;4138279;27;20056;-89
2020/12/08 02:55:04;;;;;;;0.10;0.07;;;4.10;88.70;;;;;;4090979;34;20044;-89
2020/12/08 02:57:42;;;;;;;0.87;0.30;;;4.10;88.80;;;;;;4128623;27;20068;-88
2020/12/08 03:15:44;;;;;;;2.40;0.90;;;4.00;88.90;;;;;;4142851;27;20074;-90
2020/12/08 03:18:52;;;;;;;1.60;0.87;;;3.90;88.90;;;;;;4152604;34;20373;-90
2020/12/08 03:21:38;;;;;;;;;;;;;;;;;;;;;
2020/12/08 03:24:14;;;;;;;0.60;0.20;;;3.90;89.00;;;;;;4222445;27;20042;-88
2020/12/08 03:26:43;;;;;;;0.70;0.20;;;3.90;89.00;;;;;;4133834;34;20055;-90
2020/12/08 03:37:13;;;;;;;0.40;0.10;;;3.90;89.10;;;;;;4109856;34;20152;-88
2020/12/08 03:40:00;;;;;;;0.17;0.10;;;3.90;89.10;;;;;;4128378;34;20047;-89
2020/12/08 03:42:46;;;;;;;0.20;0.20;;;3.90;89.10;;;;;;4130169;34;20082;-89
2020/12/08 03:45:15;;;;;;;0.00;0.00;;;3.90;89.10;;;;;;4104066;27;20051;-88
2020/12/08 03:47:44;;;;;;;1.87;0.10;;;3.90;89.10;;;;;;4108734;34;20051;-89
2020/12/08 03:50:29;;;;;;;1.50;0.60;;;3.90;89.10;;;;;;4130549;34;20047;-89
2020/12/08 03:53:13;;;;;;;1.40;0.40;;;3.90;89.10;;;;;;4130978;34;20454;-88
2020/12/08 03:55:42;;;;;;;0.07;0.00;;;3.90;89.10;;;;;;4135838;27;20124;-90
2020/12/08 04:05:54;;;;;;;0.70;0.38;;;3.90;89.10;;;;;;4133682;34;20092;-89
2020/12/08 04:11:13;;;;;;;0.50;0.23;;;3.90;89.00;;;;;;4245486;27;20480;-89
2020/12/08 04:13:40;;;;;;;0.23;0.23;;;4.00;88.90;;;;;;4120059;27;20052;-87
2020/12/08 04:16:24;;;;;;;1.40;0.43;;;4.00;88.70;;;;;;4209374;27;20052;-89
2020/12/08 04:18:50;;;;;;;8.77;0.60;;;4.10;88.80;;;;;;4088116;35;20061;-89
2020/12/08 04:21:29;;;;;;;0.07;0.07;;;4.10;88.70;;;;;;4088394;35;20080;-89
2020/12/08 04:24:02;;;;;;;0.20;0.17;;;4.20;88.60;;;;;;4080508;35;20055;-88
2020/12/08 04:26:33;;;;;;;0.40;0.30;;;4.20;88.50;;;;;;4081066;35;20076;-89
2020/12/08 04:29:10;;;;;;;0.50;0.50;;;4.20;88.40;;;;;;4056817;35;20104;-89
2020/12/08 04:31:49;;;;;;;1.03;0.10;;;4.30;88.40;;;;;;4091695;28;20060;-90
2020/12/08 04:34:21;;;;;;;0.00;0.00;;;4.30;88.40;;;;;;4126579;27;20060;-89
2020/12/08 04:36:59;;;;;;;1.93;0.57;;;4.30;88.40;;;;;;4069982;35;20068;-88
2020/12/08 04:47:16;;;;;;;0.77;0.10;;;4.30;88.50;;;;;;4144963;27;20081;-87
2020/12/08 04:49:52;;;;;;;0.00;0.00;;;4.30;88.50;;;;;;4119693;34;20044;-89
2020/12/08 06:44:52;;;;;;;;;;;;;;;;;;;;;
2020/12/08 06:47:54;;;;;;;1.10;0.53;;;3.00;90.40;;;;;;4166626;27;20506;-89
2020/12/08 06:50:47;;;;;;;1.10;0.47;;;3.00;90.40;;;;;;4114889;34;20051;-88
2020/12/08 07:49:44;;;;;;;0.17;0.10;;;3.40;89.30;;;;;;4092528;35;20063;-90
2020/12/08 07:53:13;;;;;;;0.87;0.73;;;3.40;89.20;;;;;;4085812;27;20044;-89
2020/12/08 08:06:03;;;;;;;1.13;0.90;;;3.60;88.80;;;;;;4123351;27;20082;-89
2020/12/08 08:57:54;;;;;;;1.07;0.60;;;4.40;87.30;;;;;;4113205;27;20177;-90
2020/12/08 09:00:21;;;;;;;1.03;0.77;;;4.40;87.30;;;;;;4122514;27;20074;-91
2020/12/08 09:02:47;;;;;;;1.00;0.63;;;4.30;87.20;;;;;;4119361;34;20078;-88
2020/12/08 09:05:14;;;;;;;1.73;0.97;;;4.40;87.30;;;;;;4129003;27;20086;-89
2020/12/08 09:07:41;;;;;;;1.70;0.30;;;4.40;87.20;;;;;;4121981;27;20034;-88
2020/12/08 09:10:33;;;;;;;1.33;0.43;;;4.50;87.20;;;;;;4138933;27;20054;-88
2020/12/08 09:13:02;;;;;;;1.10;0.83;;;4.50;87.20;;;;;;4127024;27;20410;-88
2020/12/08 09:15:28;;;;;;;2.67;1.03;;;4.50;87.10;;;;;;4145628;27;20062;-87
2020/12/08 09:17:55;;;;;;;3.00;0.53;;;4.60;87.00;;;;;;4136274;27;20062;-90
2020/12/08 09:20:21;;;;;;;0.60;0.40;;;4.70;87.00;;;;;;4146832;27;20081;-89
2020/12/08 09:22:48;;;;;;;2.13;0.70;;;4.70;86.80;;;;;;4134045;34;20082;-90
2020/12/08 09:25:27;;;;;;;0.70;0.33;;;4.70;86.80;;;;;;4116248;27;20054;-88
2020/12/08 09:28:17;;;;;;;0.43;0.40;;;4.80;86.90;;;;;;4168093;27;20065;-89
2020/12/08 09:35:55;;;;;;;2.20;0.80;;;4.90;86.50;;;;;;4140087;27;20075;-89
2020/12/08 09:49:10;;;;;;;0.23;0.20;;;5.20;86.00;;;;;;4128591;27;20071;-88
2020/12/08 09:51:53;;;;;;;0.50;0.17;;;5.40;85.80;;;;;;4116352;35;20103;-87
2020/12/08 10:00:17;;;;;;;0.60;0.30;;;5.90;84.50;;;;;;4118022;27;20526;-87
2020/12/08 10:03:18;;;;;;;0.50;0.20;;;5.90;84.40;;;;;;4097165;34;20110;31
2020/12/08 10:20:00;;;;;;;0.10;0.10;;;5.90;85.00;;;;;;4199626;27;20051;-90
2020/12/08 10:22:26;;;;;;;0.10;0.10;;;5.90;85.10;;;;;;4117653;27;20081;-88
2020/12/08 10:24:53;;;;;;;6.13;0.87;;;5.90;85.10;;;;;;4117998;27;20089;-89
2020/12/08 10:27:19;;;;;;;1.13;0.60;;;6.00;85.20;;;;;;4119460;27;20086;-90
2020/12/08 10:29:46;;;;;;;1.53;0.60;;;6.00;85.10;;;;;;4116104;27;20078;-90
2020/12/08 10:32:12;;;;;;;0.93;0.30;;;6.10;85.10;;;;;;4127516;27;20224;-87
2020/12/08 10:34:39;;;;;;;2.20;0.77;;;6.10;85.00;;;;;;4114003;35;20062;-90
2020/12/08 10:37:06;;;;;;;0.57;0.17;;;6.20;84.80;;;;;;4126055;35;20072;-88
2020/12/08 10:39:33;;;;;;;0.53;0.33;;;6.20;84.80;;;;;;4125266;27;20374;-90
2020/12/08 10:42:18;;;;;;;;;;;;;;;;;;;;;
2020/12/08 10:44:45;;;;;;;0.87;0.60;;;6.50;84.20;;;;;;4127573;35;20090;-89
2020/12/08 10:47:35;;;;;;;3.20;0.53;;;6.50;84.00;;;;;;4130675;27;20082;-91
2020/12/08 10:55:22;;;;;;;1.53;0.83;;;6.60;84.00;;;;;;4148752;27;20074;-91
2020/12/08 10:57:48;;;;;;;4.00;0.33;;;6.70;83.90;;;;;;4125332;34;20524;-88
2020/12/08 11:00:15;;;;;;;0.83;0.23;;;6.80;83.90;;;;;;4119410;27;20074;-88
2020/12/08 11:03:07;;;;;;;0.77;0.23;;;6.90;83.80;;;;;;4147013;34;20082;-88
2020/12/08 11:05:46;;;;;;;0.63;0.20;;;7.20;83.50;;;;;;4127640;34;20121;-91
2020/12/08 11:08:12;;;;;;;1.60;0.30;;;7.60;82.70;;;;;;4136863;34;20078;-90
2020/12/08 11:10:40;;;;;;;0.50;0.30;;;8.00;81.50;;;;;;4125047;27;20074;-89
2020/12/08 11:13:11;;;;;;;0.73;0.67;;;8.40;80.70;;;;;;4133741;34;20117;-89
2020/12/08 11:15:40;;;;;;;3.78;0.85;;;8.70;80.10;;;;;;4132269;27;20411;-89
2020/12/08 11:18:07;;;;;;;1.37;0.30;;;9.10;79.30;;;;;;4132120;34;20102;-88
2020/12/08 11:20:34;;;;;;;1.60;0.70;;;9.60;78.40;;;;;;4129230;27;20071;-88
2020/12/08 11:23:00;;;;;;;0.70;0.50;;;9.90;77.70;;;;;;4166246;26;20085;-89
2020/12/08 11:25:27;;;;;;;0.85;0.22;;;10.00;77.30;;;;;;4123495;34;20086;-89
2020/12/08 11:27:57;;;;;;;1.02;0.50;;;10.20;77.20;;;;;;4121265;34;20395;-91
2020/12/08 11:30:23;;;;;;;9.90;0.70;;;10.10;77.50;;;;;;4113630;27;20225;-88
2020/12/08 11:33:09;;;;;;;1.35;0.45;;;10.20;78.00;;;;;;4125527;27;20078;-89
2020/12/08 11:35:35;;;;;;;6.40;1.15;;;10.30;78.10;;;;;;4133287;27;20615;-89
2020/12/08 11:38:57;;;;;;;1.67;0.43;;;10.50;77.90;;;;;;4113296;27;20361;-89
2020/12/08 11:41:32;;;;;;;0.32;0.30;;;10.90;77.50;;;;;;4118810;27;20093;-89
2020/12/08 11:44:15;;;;;;;0.90;0.30;;;11.20;76.80;;;;;;4112076;34;20077;-90
2020/12/08 12:23:13;;;;;;;2.22;0.73;;;10.90;79.80;;;;;;4109434;35;20448;-88
2020/12/08 12:25:40;;;;;;;0.55;0.40;;;11.00;79.10;;;;;;4091683;35;20079;-86
2020/12/08 13:58:02;;;;;;;1.88;0.38;;;9.30;81.10;;;;;;4109428;27;20176;-90
2020/12/08 14:00:43;;;;;;;0.65;0.35;;;9.20;81.30;;;;;;4161497;27;20071;-89
2020/12/08 14:05:59;;;;;;;;;;;;;;;;;;;;;
2020/12/08 14:11:53;;;;;;;0.30;0.22;;;9.30;81.20;;;;;;4167554;27;20555;-89
2020/12/08 14:14:37;;;;;;;3.65;0.20;;;9.20;81.40;;;;;;4131004;34;20438;-90
2020/12/08 14:17:13;;;;;;;0.00;0.00;;;9.10;81.40;;;;;;4137368;28;20070;-89
2020/12/08 14:19:46;;;;;;;0.17;0.00;;;9.00;81.60;;;;;;4134983;34;20042;-90
2020/12/08 14:22:15;;;;;;;3.03;0.57;;;8.90;81.70;;;;;;4212818;27;20054;-88
2020/12/08 14:25:09;;;;;;;26.80;1.20;;;8.90;81.90;;;;;;4127487;35;20675;-90
2020/12/08 14:27:47;;;;;;;0.75;0.30;;;8.90;81.90;;;;;;4154415;27;20054;-91
2020/12/08 14:30:43;;;;;;;0.88;0.28;;;8.80;81.90;;;;;;4128513;27;20064;-90
2020/12/08 14:33:19;;;;;;;0.08;0.00;;;8.80;81.90;;;;;;4096769;35;20059;-91
2020/12/08 14:36:11;;;;;;;;;;;;;;;;;;;;;
2020/12/08 14:39:08;;;;;;;0.60;0.15;;;8.70;82.10;;;;;;4108403;27;20066;-90
2020/12/08 14:41:50;;;;;;;0.30;0.20;;;8.70;82.20;;;;;;4156166;27;20099;-91
2020/12/08 14:44:48;;;;;;;0.25;0.08;;;8.70;82.00;;;;;;4091659;35;20071;-88
2020/12/08 14:47:47;;;;;;;0.60;0.15;;;8.70;82.00;;;;;;4087966;28;20060;-89
2020/12/08 14:56:04;;;;;;;;;;;;;;;;;;;;;
2020/12/08 14:59:03;;;;;;;;;;;;;;;;;;;;;
2020/12/08 15:08:36;;;;;;;0.08;0.00;;;8.60;82.10;;;;;;4101752;35;20036;-91
2020/12/08 15:11:50;;;;;;;1.08;0.20;;;8.60;82.20;;;;;;4147878;27;20323;-91
2020/12/08 15:22:56;;;;;;;0.52;0.28;;;8.50;82.20;;;;;;4146741;27;20431;-90
2020/12/08 15:25:30;;;;;;;1.63;0.50;;;8.60;82.20;;;;;;4118888;34;20074;-87
2020/12/08 15:28:23;;;;;;;0.85;0.20;;;8.70;82.30;;;;;;4121055;27;20078;-87
2020/12/08 15:31:05;;;;;;;0.10;0.00;;;8.60;82.20;;;;;;4143478;27;20059;-87
2020/12/08 15:33:52;;;;;;;0.90;0.55;;;8.60;82.20;;;;;;4119959;34;20062;-90
2020/12/08 15:36:24;;;;;;;0.28;0.15;;;8.60;82.20;;;;;;4138279;27;20079;-87
2020/12/08 15:39:08;;;;;;;0.68;0.65;;;8.60;82.20;;;;;;4116122;27;20059;-86
2020/12/08 15:41:39;;;;;;;0.32;0.15;;;8.60;82.40;;;;;;4094056;35;20071;-88
2020/12/08 15:44:56;;;;;;;;;;;;;;;;;;;;;
2020/12/08 15:47:55;;;;;;;0.60;0.15;;;8.50;82.70;;;;;;4121202;28;20051;-87
2020/12/08 15:50:50;;;;;;;;;;;;;;;;;;;;;
2020/12/08 15:53:20;;;;;;;0.55;0.15;;;8.30;83.10;;;;;;4087999;35;20147;-88
2020/12/08 17:08:34;;;;;;;0.40;0.17;;;6.60;87.30;;;;;;4099066;27;20134;31
2020/12/08 17:11:11;;;;;;;1.10;0.40;;;6.50;86.70;;;;;;4079873;35;20071;-90
2020/12/08 20:08:09;;;;;;;0.37;0.27;;;5.80;85.70;;;;;;4104539;27;20110;-89
2020/12/08 20:14:35;;;;;;;0.57;0.40;;;5.90;85.70;;;;;;4070930;35;20084;-89
2020/12/08 20:18:00;;;;;;;0.63;0.37;;;5.80;85.70;;;;;;4038288;28;20079;-89
2020/12/08 20:23:43;;;;;;;;;;;;;;;;;;;;;
2020/12/08 20:57:39;;;;;;;0.80;0.37;;;5.30;87.00;;;;;;4141549;27;20500;-89
2020/12/08 21:00:28;;;;;;;1.20;0.57;;;5.20;87.30;;;;;;4125460;27;20504;-88
2020/12/08 21:03:05;;;;;;;0.77;0.40;;;5.20;87.40;;;;;;4131191;34;20090;-89
2020/12/08 21:05:43;;;;;;;0.20;0.10;;;5.10;87.60;;;;;;4131542;34;20077;-89
2020/12/08 21:08:15;;;;;;;4.13;0.83;;;5.00;87.80;;;;;;4144539;27;20139;-89
2020/12/08 23:38:21;;;;;;;;;;;;;;;;;;;;;
